Mill Village, Pennsylvania
Current Conditions -  °F | °C
As of 4:51 AM on Wednesday 26 Nov 2014 (Local Time) from KERI Reporting Station
Overcast Overcast  
Wind Chill:   Ceiling: 2500
Heat Index:   Visibility: 10mi
Dew Point: -4°   Wind: 0mph
Humidity: 70%   Direction: NA
Pressure: 30.17"   Gusts: NA
Location:  41.88°N, 79.97°W
Report Text: KERI 260951Z 00000KT 10SM OVC025 01/M04 A3017 RMK AO2 SLP223 T00111039
Loading
Personal Weather Stations






























Interactive Weather Map New forecast layout! Learn more

10-Day Weather Forecast

Advertisements
Track Severe Weather on mobile